createdAt,value
2018-06-12T00:00:37.844Z,19.91
2018-06-12T00:01:37.823Z,19.88
2018-06-12T00:02:37.817Z,19.86
2018-06-12T00:03:37.881Z,19.88
2018-06-12T00:04:37.991Z,19.92
2018-06-12T00:05:37.794Z,19.93
2018-06-12T00:06:37.807Z,19.91
2018-06-12T00:07:37.806Z,19.84
2018-06-12T00:08:37.841Z,19.86
2018-06-12T00:09:37.830Z,19.88
2018-06-12T00:10:37.803Z,19.89
2018-06-12T00:11:37.803Z,19.91
2018-06-12T00:12:37.820Z,19.7
2018-06-12T00:13:37.812Z,19.67
2018-06-12T00:14:37.856Z,19.67
2018-06-12T00:15:37.815Z,19.71
2018-06-12T00:16:37.843Z,19.71
2018-06-12T00:17:37.863Z,19.72
2018-06-12T00:18:37.799Z,19.77
2018-06-12T00:19:37.802Z,19.79
2018-06-12T00:20:37.853Z,19.78
2018-06-12T00:21:37.801Z,19.79
2018-06-12T00:22:38.044Z,19.79
2018-06-12T00:23:37.853Z,19.81
2018-06-12T00:24:37.835Z,19.79
2018-06-12T00:25:37.827Z,19.81
2018-06-12T00:26:37.878Z,19.78
2018-06-12T00:27:38.063Z,19.79
2018-06-12T00:28:37.808Z,19.81
2018-06-12T00:29:37.811Z,19.75
2018-06-12T00:30:37.842Z,19.77
2018-06-12T00:31:37.809Z,19.77
2018-06-12T00:32:37.841Z,19.72
2018-06-12T00:33:37.811Z,19.67
2018-06-12T00:34:37.790Z,19.68
2018-06-12T00:35:37.809Z,19.72
2018-06-12T00:36:37.801Z,19.74
2018-06-12T00:37:37.826Z,19.71
2018-06-12T00:38:37.871Z,19.71
2018-06-12T00:39:37.995Z,19.7
2018-06-12T00:40:37.961Z,19.71
2018-06-12T00:41:37.816Z,19.74
2018-06-12T00:42:37.860Z,19.61
2018-06-12T00:43:37.848Z,19.64
2018-06-12T00:44:37.815Z,19.64
2018-06-12T00:45:37.953Z,19.67
2018-06-12T00:46:37.793Z,19.7
2018-06-12T00:47:37.786Z,19.72
2018-06-12T00:48:37.811Z,19.6
2018-06-12T00:49:37.862Z,19.6
2018-06-12T00:50:37.909Z,19.65
2018-06-12T00:51:37.801Z,19.62
2018-06-12T00:52:37.937Z,19.67
2018-06-12T00:53:37.861Z,19.7
2018-06-12T00:54:37.805Z,19.7
2018-06-12T00:55:37.907Z,19.72
2018-06-12T00:56:37.795Z,19.7
2018-06-12T00:57:37.920Z,19.7
2018-06-12T00:58:37.787Z,19.68
2018-06-12T00:59:38.150Z,19.61
2018-06-12T01:00:37.909Z,19.51
2018-06-12T01:01:37.853Z,19.47
2018-06-12T01:02:37.837Z,19.46
2018-06-12T01:03:37.784Z,19.49
2018-06-12T01:04:37.818Z,19.47
2018-06-12T01:05:37.789Z,19.44
2018-06-12T01:06:37.789Z,19.46
2018-06-12T01:07:37.940Z,19.51
2018-06-12T01:08:37.974Z,19.54
2018-06-12T01:09:38.011Z,19.57
2018-06-12T01:10:37.794Z,19.53
2018-06-12T01:11:37.804Z,19.57
2018-06-12T01:12:37.845Z,19.44
2018-06-12T01:13:37.784Z,19.43
2018-06-12T01:14:37.783Z,19.44
2018-06-12T01:15:37.805Z,19.42
2018-06-12T01:16:37.780Z,19.43
2018-06-12T01:17:37.786Z,19.36
2018-06-12T01:18:37.770Z,19.27
2018-06-12T01:19:37.821Z,19.16
2018-06-12T01:20:37.809Z,19.13
2018-06-12T01:21:37.785Z,19.13
2018-06-12T01:22:37.784Z,19.17
2018-06-12T01:23:37.795Z,19.21
2018-06-12T01:24:37.831Z,19.21
2018-06-12T01:25:37.832Z,19.19
2018-06-12T01:26:37.817Z,19.19
2018-06-12T01:27:37.810Z,19.16
2018-06-12T01:28:37.787Z,19.16
2018-06-12T01:29:37.837Z,19.13
2018-06-12T01:30:37.856Z,18.98
2018-06-12T01:31:37.787Z,18.91
2018-06-12T01:32:37.775Z,18.91
2018-06-12T01:33:37.812Z,18.95
2018-06-12T01:34:37.777Z,18.98
2018-06-12T01:35:37.796Z,19.05
2018-06-12T01:36:37.821Z,19.08
2018-06-12T01:37:37.886Z,19.1
2018-06-12T01:38:37.803Z,19.09
2018-06-12T01:39:37.916Z,19.09
2018-06-12T01:40:37.894Z,19.08
2018-06-12T01:41:38.386Z,19.06
2018-06-12T01:42:37.769Z,19.08
2018-06-12T01:43:38.146Z,19.05
2018-06-12T01:44:37.796Z,18.98
2018-06-12T01:45:38.060Z,18.92
2018-06-12T01:46:37.838Z,18.94
2018-06-12T01:47:37.782Z,18.94
2018-06-12T01:48:37.911Z,18.87
2018-06-12T01:49:37.767Z,18.91
2018-06-12T01:50:37.767Z,18.89
2018-06-12T01:51:37.804Z,18.92
2018-06-12T01:52:37.857Z,18.91
2018-06-12T01:53:37.797Z,18.88
2018-06-12T01:54:37.768Z,18.82
2018-06-12T01:55:37.784Z,18.89
2018-06-12T01:56:37.818Z,18.84
2018-06-12T01:57:37.816Z,18.84
2018-06-12T01:58:37.771Z,18.74
2018-06-12T01:59:37.810Z,18.75
2018-06-12T02:00:37.792Z,18.77
2018-06-12T02:01:37.940Z,18.82
2018-06-12T02:02:37.943Z,18.74
2018-06-12T02:03:38.196Z,18.84
2018-06-12T02:04:37.763Z,18.85
2018-06-12T02:05:37.763Z,18.89
2018-06-12T02:06:37.785Z,18.91
2018-06-12T02:07:37.782Z,18.94
2018-06-12T02:08:37.803Z,18.98
2018-06-12T02:09:37.774Z,18.91
2018-06-12T02:10:37.766Z,18.95
2018-06-12T02:11:37.784Z,18.97
2018-06-12T02:12:37.802Z,19.03
2018-06-12T02:13:37.829Z,18.95
2018-06-12T02:14:37.803Z,18.95
2018-06-12T02:15:37.773Z,18.91
2018-06-12T02:16:37.786Z,18.94
2018-06-12T02:17:37.788Z,18.89
2018-06-12T02:18:37.768Z,18.82
2018-06-12T02:19:37.773Z,18.77
2018-06-12T02:20:37.766Z,18.74
2018-06-12T02:21:38.041Z,18.77
2018-06-12T02:22:37.828Z,18.67
2018-06-12T02:23:37.777Z,18.7
2018-06-12T02:24:37.773Z,18.59
2018-06-12T02:25:38.040Z,18.53
2018-06-12T02:26:37.765Z,18.53
2018-06-12T02:27:37.758Z,18.56
2018-06-12T02:28:37.754Z,18.59
2018-06-12T02:29:37.759Z,18.61
2018-06-12T02:30:37.778Z,18.64
2018-06-12T02:31:37.799Z,18.61
2018-06-12T02:32:37.762Z,18.63
2018-06-12T02:33:37.786Z,18.64
2018-06-12T02:34:37.791Z,18.68
2018-06-12T02:35:37.810Z,18.56
2018-06-12T02:36:37.755Z,18.61
2018-06-12T02:37:37.807Z,18.68
2018-06-12T02:38:37.759Z,18.72
2018-06-12T02:39:37.780Z,18.74
2018-06-12T02:40:37.774Z,18.66
2018-06-12T02:41:37.756Z,18.66
2018-06-12T02:42:37.766Z,18.71
2018-06-12T02:43:37.773Z,18.71
2018-06-12T02:44:38.073Z,18.67
2018-06-12T02:45:37.795Z,18.61
2018-06-12T02:46:37.777Z,18.67
2018-06-12T02:47:37.779Z,18.67
2018-06-12T02:48:37.763Z,18.67
2018-06-12T02:49:37.780Z,18.71
2018-06-12T02:50:37.775Z,18.68
2018-06-12T02:51:37.940Z,18.71
2018-06-12T02:52:37.779Z,18.74
2018-06-12T02:53:37.957Z,18.75
2018-06-12T02:54:37.753Z,18.74
2018-06-12T02:55:37.766Z,18.77
2018-06-12T02:56:37.790Z,18.8
2018-06-12T02:57:37.758Z,18.77
2018-06-12T02:58:38.051Z,18.78
2018-06-12T02:59:37.747Z,18.71
2018-06-12T03:00:37.961Z,18.74
2018-06-12T03:01:37.789Z,18.7
2018-06-12T03:02:37.808Z,18.68
2018-06-12T03:03:37.904Z,18.71
2018-06-12T03:04:37.765Z,18.7
2018-06-12T03:05:37.772Z,18.71
2018-06-12T03:06:37.759Z,18.72
2018-06-12T03:07:37.789Z,18.74
2018-06-12T03:08:37.769Z,18.8
2018-06-12T03:09:37.809Z,18.68
2018-06-12T03:10:37.750Z,18.71
2018-06-12T03:11:37.761Z,18.64
2018-06-12T03:12:37.755Z,18.61
2018-06-12T03:13:37.761Z,18.59
2018-06-12T03:14:37.749Z,18.54
2018-06-12T03:15:37.759Z,18.54
2018-06-12T03:16:37.857Z,18.59
2018-06-12T03:17:37.798Z,18.59
2018-06-12T03:18:37.749Z,18.54
2018-06-12T03:19:37.746Z,18.54
2018-06-12T03:20:37.780Z,18.53
2018-06-12T03:21:37.735Z,18.6
2018-06-12T03:22:37.729Z,18.63
2018-06-12T03:23:37.745Z,18.63
2018-06-12T03:24:37.790Z,18.57
2018-06-12T03:25:37.763Z,18.63
2018-06-12T03:26:37.930Z,18.6
2018-06-12T03:27:37.745Z,18.52
2018-06-12T03:28:37.829Z,18.46
2018-06-12T03:29:37.787Z,18.49
2018-06-12T03:30:37.769Z,18.46
2018-06-12T03:31:37.825Z,18.44
2018-06-12T03:32:37.930Z,18.46
2018-06-12T03:33:37.938Z,18.5
2018-06-12T03:34:37.760Z,18.54
2018-06-12T03:35:37.744Z,18.57
2018-06-12T03:36:37.757Z,18.57
2018-06-12T03:37:37.739Z,18.59
2018-06-12T03:38:37.739Z,18.64
2018-06-12T03:39:37.907Z,18.64
2018-06-12T03:40:37.722Z,18.64
2018-06-12T03:41:37.725Z,18.67
2018-06-12T03:42:37.735Z,18.7
2018-06-12T03:43:37.741Z,18.74
2018-06-12T03:44:37.790Z,18.74
2018-06-12T03:45:37.750Z,18.75
2018-06-12T03:46:37.745Z,18.75
2018-06-12T03:47:37.737Z,18.75
2018-06-12T03:48:37.735Z,18.78
2018-06-12T03:49:37.740Z,18.71
2018-06-12T03:50:37.812Z,18.71
2018-06-12T03:51:37.743Z,18.66
2018-06-12T03:52:37.736Z,18.61
2018-06-12T03:53:37.733Z,18.64
2018-06-12T03:54:37.741Z,18.67
2018-06-12T03:55:37.734Z,18.63
2018-06-12T03:56:37.720Z,18.57
2018-06-12T03:57:37.946Z,18.54
2018-06-12T03:58:37.769Z,18.52
2018-06-12T03:59:37.957Z,18.53
2018-06-12T04:00:37.829Z,18.42
2018-06-12T04:01:37.756Z,18.35
2018-06-12T04:02:37.745Z,18.39
2018-06-12T04:03:37.776Z,18.39
2018-06-12T04:04:37.720Z,18.44
2018-06-12T04:05:37.737Z,18.39
2018-06-12T04:06:37.727Z,18.42
2018-06-12T04:07:37.871Z,18.33
2018-06-12T04:08:37.698Z,18.32
2018-06-12T04:09:37.736Z,18.19
2018-06-12T04:10:37.772Z,18.16
2018-06-12T04:11:37.918Z,18.11
2018-06-12T04:12:37.791Z,18.13
2018-06-12T04:13:37.737Z,18.11
2018-06-12T04:14:37.735Z,18.09
2018-06-12T04:15:37.753Z,18.06
2018-06-12T04:16:37.749Z,18.08
2018-06-12T04:17:37.782Z,18.12
2018-06-12T04:18:37.973Z,18.13
2018-06-12T04:19:37.750Z,18.15
2018-06-12T04:20:37.857Z,18.19
2018-06-12T04:21:37.712Z,18.26
2018-06-12T04:22:37.712Z,18.2
2018-06-12T04:23:37.781Z,18.25
2018-06-12T04:24:37.789Z,18.32
2018-06-12T04:25:37.717Z,18.27
2018-06-12T04:26:37.728Z,18.29
2018-06-12T04:27:37.728Z,18.32
2018-06-12T04:28:37.736Z,18.3
2018-06-12T04:29:37.941Z,18.36
2018-06-12T04:30:38.413Z,18.4
2018-06-12T04:31:38.076Z,18.44
2018-06-12T04:32:37.747Z,18.47
2018-06-12T04:33:37.737Z,18.52
2018-06-12T04:34:37.782Z,18.52
2018-06-12T04:35:37.720Z,18.52
2018-06-12T04:36:37.779Z,18.49
2018-06-12T04:37:37.730Z,18.52
2018-06-12T04:38:37.730Z,18.56
2018-06-12T04:39:37.755Z,18.56
2018-06-12T04:40:37.720Z,18.53
2018-06-12T04:41:37.722Z,18.47
2018-06-12T04:42:37.713Z,18.42
2018-06-12T04:43:38.040Z,18.36
2018-06-12T04:44:37.747Z,18.35
2018-06-12T04:45:37.771Z,18.39
2018-06-12T04:46:37.775Z,18.39
2018-06-12T04:47:37.709Z,18.36
2018-06-12T04:48:37.755Z,18.36
2018-06-12T04:49:37.731Z,18.42
2018-06-12T04:50:37.769Z,18.42
2018-06-12T04:51:37.749Z,18.39
2018-06-12T04:52:37.725Z,18.4
2018-06-12T04:53:37.722Z,18.46
2018-06-12T04:54:37.803Z,18.49
2018-06-12T04:55:37.714Z,18.52
2018-06-12T04:56:37.753Z,18.47
2018-06-12T04:57:37.715Z,18.4
2018-06-12T04:58:37.718Z,18.46
2018-06-12T04:59:37.709Z,18.49
2018-06-12T05:00:37.749Z,18.5
2018-06-12T05:01:37.706Z,18.56
2018-06-12T05:02:37.719Z,18.52
2018-06-12T05:03:37.703Z,18.54
2018-06-12T05:04:37.701Z,18.59
2018-06-12T05:05:37.772Z,18.59
2018-06-12T05:06:37.707Z,18.59
2018-06-12T05:07:37.752Z,18.59
2018-06-12T05:08:37.857Z,18.57
2018-06-12T05:09:37.702Z,18.59
2018-06-12T05:10:37.924Z,18.47
2018-06-12T05:11:37.700Z,18.52
2018-06-12T05:12:37.694Z,18.49
2018-06-12T05:13:37.727Z,18.44
2018-06-12T05:14:38.124Z,18.44
2018-06-12T05:15:37.760Z,18.47
2018-06-12T05:16:37.711Z,18.52
2018-06-12T05:17:37.707Z,18.49
2018-06-12T05:18:38.043Z,18.5
2018-06-12T05:19:38.367Z,18.54
2018-06-12T05:20:37.916Z,18.57
2018-06-12T05:21:38.007Z,18.56
2018-06-12T05:22:37.799Z,18.59
2018-06-12T05:23:37.698Z,18.56
2018-06-12T05:24:37.719Z,18.59
2018-06-12T05:25:38.071Z,18.54
2018-06-12T05:26:37.687Z,18.52
2018-06-12T05:27:37.692Z,18.56
2018-06-12T05:28:37.924Z,18.53
2018-06-12T05:29:37.698Z,18.49
2018-06-12T05:30:37.762Z,18.47
2018-06-12T05:31:37.817Z,18.44
2018-06-12T05:32:37.883Z,18.4
2018-06-12T05:33:37.816Z,18.4
2018-06-12T05:34:37.694Z,18.37
2018-06-12T05:35:37.952Z,18.43
2018-06-12T05:36:37.728Z,18.46
2018-06-12T05:37:37.692Z,18.47
2018-06-12T05:38:37.715Z,18.49
2018-06-12T05:39:37.728Z,18.43
2018-06-12T05:40:37.720Z,18.39
2018-06-12T05:41:37.731Z,18.35
2018-06-12T05:42:37.758Z,18.29
2018-06-12T05:43:37.715Z,18.32
2018-06-12T05:44:37.743Z,18.27
2018-06-12T05:45:38.062Z,18.32
2018-06-12T05:46:37.695Z,18.33
2018-06-12T05:47:37.721Z,18.33
2018-06-12T05:48:37.908Z,18.36
2018-06-12T05:49:37.718Z,18.39
2018-06-12T05:50:37.710Z,18.42
2018-06-12T05:51:37.726Z,18.4
2018-06-12T05:52:37.753Z,18.4
2018-06-12T05:53:37.779Z,18.39
2018-06-12T05:54:37.707Z,18.4
2018-06-12T05:55:37.780Z,18.44
2018-06-12T05:56:37.684Z,18.49
2018-06-12T05:57:37.694Z,18.46
2018-06-12T05:58:37.689Z,18.52
2018-06-12T05:59:37.691Z,18.4
2018-06-12T06:00:37.695Z,18.33
2018-06-12T06:01:37.744Z,18.26
2018-06-12T06:02:37.724Z,18.35
2018-06-12T06:03:37.679Z,18.39
2018-06-12T06:04:37.703Z,18.4
2018-06-12T06:05:37.683Z,18.4
2018-06-12T06:06:37.712Z,18.4
2018-06-12T06:07:37.695Z,18.39
2018-06-12T06:08:37.692Z,18.42
2018-06-12T06:09:37.689Z,18.44
2018-06-12T06:10:37.813Z,18.44
2018-06-12T06:11:37.698Z,18.44
2018-06-12T06:12:37.731Z,18.4
2018-06-12T06:13:37.722Z,18.43
2018-06-12T06:14:37.696Z,18.46
2018-06-12T06:15:37.694Z,18.43
2018-06-12T06:16:37.697Z,18.49
2018-06-12T06:17:37.713Z,18.52
2018-06-12T06:18:37.705Z,18.47
2018-06-12T06:19:37.694Z,18.49
2018-06-12T06:20:37.803Z,18.53
2018-06-12T06:21:37.750Z,18.56
2018-06-12T06:22:37.931Z,18.59
2018-06-12T06:23:37.722Z,18.53
2018-06-12T06:24:37.689Z,18.56
2018-06-12T06:25:37.970Z,18.54
2018-06-12T06:26:37.746Z,18.44
2018-06-12T06:27:37.720Z,18.5
2018-06-12T06:28:37.696Z,18.52
2018-06-12T06:29:37.888Z,18.52
2018-06-12T06:30:37.710Z,18.54
2018-06-12T06:31:37.691Z,18.49
2018-06-12T06:32:37.719Z,18.4
2018-06-12T06:33:37.865Z,18.42
2018-06-12T06:34:37.879Z,18.44
2018-06-12T06:35:37.730Z,18.46
2018-06-12T06:36:37.766Z,18.49
2018-06-12T06:37:37.759Z,18.47
2018-06-12T06:38:37.798Z,18.33
2018-06-12T06:39:37.707Z,18.3
2018-06-12T06:40:37.760Z,18.3
2018-06-12T06:41:37.812Z,18.32
2018-06-12T06:42:37.749Z,18.33
2018-06-12T06:43:37.759Z,18.32
2018-06-12T06:44:37.732Z,18.3
2018-06-12T06:45:37.732Z,18.33
2018-06-12T06:46:37.750Z,18.35
2018-06-12T06:47:37.733Z,18.33
2018-06-12T06:48:37.738Z,18.32
2018-06-12T06:49:37.739Z,18.4
2018-06-12T06:50:37.739Z,18.35
2018-06-12T06:51:37.892Z,18.32
2018-06-12T06:52:37.754Z,18.32
2018-06-12T06:53:37.922Z,18.33
2018-06-12T06:54:37.715Z,18.32
2018-06-12T06:55:38.125Z,18.36
2018-06-12T06:56:37.734Z,18.39
2018-06-12T06:57:37.793Z,18.37
2018-06-12T06:58:37.743Z,18.39
2018-06-12T06:59:37.752Z,18.37
2018-06-12T07:00:37.774Z,18.32
2018-06-12T07:01:37.751Z,18.32
2018-06-12T07:02:37.752Z,18.35
2018-06-12T07:03:37.756Z,18.33
2018-06-12T07:04:37.724Z,18.33
2018-06-12T07:05:37.748Z,18.3
2018-06-12T07:06:37.742Z,18.33
2018-06-12T07:07:38.026Z,18.39
2018-06-12T07:08:37.739Z,18.39
2018-06-12T07:09:37.799Z,18.4
2018-06-12T07:10:37.723Z,18.32
2018-06-12T07:11:37.760Z,18.32
2018-06-12T07:12:37.738Z,18.39
2018-06-12T07:13:37.729Z,18.39
2018-06-12T07:14:37.738Z,18.4
2018-06-12T07:15:37.729Z,18.44
2018-06-12T07:16:37.758Z,18.5
2018-06-12T07:17:37.725Z,18.5
2018-06-12T07:18:37.739Z,18.57
2018-06-12T07:19:37.725Z,18.54
2018-06-12T07:20:37.744Z,18.5
2018-06-12T07:21:37.814Z,18.47
2018-06-12T07:22:37.747Z,18.46
2018-06-12T07:23:37.915Z,18.44
2018-06-12T07:24:37.734Z,18.52
2018-06-12T07:25:37.730Z,18.52
2018-06-12T07:26:37.781Z,18.43
2018-06-12T07:27:37.766Z,18.37
2018-06-12T07:28:37.744Z,18.37
2018-06-12T07:29:37.749Z,18.44
2018-06-12T07:30:37.756Z,18.46
2018-06-12T07:31:37.794Z,18.49
2018-06-12T07:32:37.785Z,18.46
2018-06-12T07:33:37.761Z,18.44
2018-06-12T07:34:37.964Z,18.49
2018-06-12T07:35:37.775Z,18.52
2018-06-12T07:36:37.825Z,18.52
2018-06-12T07:37:38.554Z,18.47
2018-06-12T07:38:37.773Z,18.47
2018-06-12T07:39:37.751Z,18.53
2018-06-12T07:40:37.843Z,18.5
2018-06-12T07:41:38.401Z,18.52
2018-06-12T07:42:37.793Z,18.52
2018-06-12T07:43:37.740Z,18.56
2018-06-12T07:44:37.745Z,18.54
2018-06-12T07:45:37.750Z,18.56
2018-06-12T07:46:37.766Z,18.57
2018-06-12T07:47:37.773Z,18.6
2018-06-12T07:48:37.804Z,18.6
2018-06-12T07:49:37.792Z,18.64
2018-06-12T07:50:37.735Z,18.61
2018-06-12T07:51:37.755Z,18.67
2018-06-12T07:52:37.900Z,18.67
2018-06-12T07:53:37.777Z,18.68
2018-06-12T07:54:37.726Z,18.68
2018-06-12T07:55:37.816Z,18.64
2018-06-12T07:56:37.792Z,18.63
2018-06-12T07:57:37.797Z,18.64
2018-06-12T07:58:37.822Z,18.7
2018-06-12T07:59:37.787Z,18.71
2018-06-12T08:00:37.777Z,18.71
2018-06-12T08:01:37.759Z,18.68
2018-06-12T08:02:37.750Z,18.72
2018-06-12T08:03:37.754Z,18.71
2018-06-12T08:04:37.786Z,18.6
2018-06-12T08:05:37.847Z,18.59
2018-06-12T08:06:37.808Z,18.6
2018-06-12T08:07:37.847Z,18.63
2018-06-12T08:08:37.933Z,18.56
2018-06-12T08:09:37.799Z,18.52
2018-06-12T08:10:37.769Z,18.5
2018-06-12T08:11:37.776Z,18.52
2018-06-12T08:12:37.770Z,18.54
2018-06-12T08:13:37.763Z,18.59
2018-06-12T08:14:37.756Z,18.54
2018-06-12T08:15:37.805Z,18.57
2018-06-12T08:16:37.821Z,18.57
2018-06-12T08:17:37.809Z,18.61
2018-06-12T08:18:37.913Z,18.66
2018-06-12T08:19:37.767Z,18.59
2018-06-12T08:20:37.881Z,18.61
2018-06-12T08:21:37.774Z,18.66
2018-06-12T08:22:37.919Z,18.68
2018-06-12T08:23:37.831Z,18.63
2018-06-12T08:24:37.779Z,18.71
2018-06-12T08:25:37.785Z,18.74
2018-06-12T08:26:37.765Z,18.74
2018-06-12T08:27:37.790Z,18.72
2018-06-12T08:28:37.819Z,18.71
2018-06-12T08:29:37.974Z,18.71
2018-06-12T08:30:38.004Z,18.77
2018-06-12T08:31:37.767Z,18.84
2018-06-12T08:32:37.775Z,18.85
2018-06-12T08:33:37.799Z,18.8
2018-06-12T08:34:37.885Z,18.71
2018-06-12T08:35:37.926Z,18.72
2018-06-12T08:36:37.798Z,18.75
2018-06-12T08:37:37.784Z,18.82
2018-06-12T08:38:37.794Z,18.74
2018-06-12T08:39:37.798Z,18.61
2018-06-12T08:40:37.807Z,18.64
2018-06-12T08:41:37.863Z,18.71
2018-06-12T08:42:37.891Z,18.67
2018-06-12T08:43:37.778Z,18.64
2018-06-12T08:44:38.083Z,18.63
2018-06-12T08:45:37.779Z,18.66
2018-06-12T08:46:37.794Z,18.67
2018-06-12T08:47:37.932Z,18.66
2018-06-12T08:48:37.786Z,18.66
2018-06-12T08:49:37.940Z,18.66
2018-06-12T08:50:37.995Z,18.64
2018-06-12T08:51:37.893Z,18.61
2018-06-12T08:52:37.805Z,18.5
2018-06-12T08:53:37.816Z,18.57
2018-06-12T08:54:37.783Z,18.56
2018-06-12T08:55:37.819Z,18.59
2018-06-12T08:56:37.981Z,18.54
2018-06-12T08:57:38.017Z,18.46
2018-06-12T08:58:37.807Z,18.4
2018-06-12T08:59:37.782Z,18.42
2018-06-12T09:00:37.788Z,18.42
2018-06-12T09:01:37.825Z,18.36
2018-06-12T09:02:38.070Z,18.33
2018-06-12T09:03:37.807Z,18.35
2018-06-12T09:04:37.951Z,18.37
2018-06-12T09:05:37.954Z,18.39
2018-06-12T09:06:37.820Z,18.2
2018-06-12T09:07:37.976Z,18.19
2018-06-12T09:08:37.834Z,18.23
2018-06-12T09:09:37.989Z,18.25
2018-06-12T09:10:37.936Z,18.23
2018-06-12T09:11:37.869Z,18.22
2018-06-12T09:12:37.828Z,18.2
2018-06-12T09:13:37.820Z,18.2
2018-06-12T09:14:37.919Z,18.16
2018-06-12T09:15:38.071Z,18.13
2018-06-12T09:16:37.873Z,18.17
2018-06-12T09:17:37.983Z,18.17
2018-06-12T09:18:38.017Z,18.19
2018-06-12T09:19:37.969Z,18.16
2018-06-12T09:20:37.840Z,18.16
2018-06-12T09:21:37.800Z,18.16
2018-06-12T09:22:37.812Z,18.12
2018-06-12T09:23:37.798Z,18.12
2018-06-12T09:24:37.808Z,18.11
2018-06-12T09:25:37.816Z,18.15
2018-06-12T09:26:38.148Z,18.15
2018-06-12T09:27:37.820Z,18.12
2018-06-12T09:28:37.812Z,18.11
2018-06-12T09:29:37.819Z,18.05
2018-06-12T09:30:37.808Z,18.01
2018-06-12T09:31:37.840Z,18.02
2018-06-12T09:32:37.809Z,17.91
2018-06-12T09:33:37.810Z,17.98
2018-06-12T09:34:37.848Z,17.99
2018-06-12T09:35:37.801Z,18.04
2018-06-12T09:36:37.809Z,18.02
2018-06-12T09:37:37.828Z,18.02
2018-06-12T09:38:37.818Z,18.02
2018-06-12T09:39:37.809Z,18.08
2018-06-12T09:40:37.833Z,18.13
2018-06-12T09:41:37.899Z,18.11
2018-06-12T09:42:37.817Z,18.09
2018-06-12T09:43:37.830Z,18.13
2018-06-12T09:44:37.821Z,18.17
2018-06-12T09:45:37.819Z,18.19
2018-06-12T09:46:37.798Z,18.23
2018-06-12T09:47:37.826Z,18.16
2018-06-12T09:48:37.819Z,18.17
2018-06-12T09:49:37.847Z,18.17
2018-06-12T09:50:37.812Z,18.19
2018-06-12T09:51:37.837Z,18.23
2018-06-12T09:52:37.858Z,18.27
2018-06-12T09:53:38.122Z,18.26
2018-06-12T09:54:37.907Z,18.23
2018-06-12T09:55:37.960Z,18.26
2018-06-12T09:56:37.893Z,18.27
2018-06-12T09:57:38.161Z,18.33
2018-06-12T09:58:38.035Z,18.4
2018-06-12T09:59:37.978Z,18.36
2018-06-12T10:00:37.838Z,18.33
2018-06-12T10:01:37.826Z,18.37
2018-06-12T10:02:37.830Z,18.36
2018-06-12T10:03:38.148Z,18.37
2018-06-12T10:04:37.894Z,18.37
2018-06-12T10:05:37.883Z,18.36
2018-06-12T10:06:37.858Z,18.29
2018-06-12T10:07:37.834Z,18.17
2018-06-12T10:08:38.100Z,18.19
2018-06-12T10:09:38.264Z,18.15
2018-06-12T10:10:37.982Z,18.16
2018-06-12T10:11:38.139Z,18.22
2018-06-12T10:12:37.839Z,18.22
2018-06-12T10:13:37.885Z,18.17
2018-06-12T10:14:38.014Z,18.15
2018-06-12T10:15:37.896Z,18.16
2018-06-12T10:16:37.825Z,18.22
2018-06-12T10:17:37.832Z,18.2
2018-06-12T10:18:37.840Z,18.26
2018-06-12T10:19:37.903Z,18.29
2018-06-12T10:20:37.846Z,18.27
2018-06-12T10:21:37.821Z,18.22
2018-06-12T10:22:37.977Z,18.2
2018-06-12T10:23:37.918Z,18.19
2018-06-12T10:24:38.176Z,18.23
2018-06-12T10:25:37.931Z,18.2
2018-06-12T10:26:37.945Z,18.26
2018-06-12T10:27:37.979Z,18.25
2018-06-12T10:28:37.850Z,18.23
2018-06-12T10:29:37.909Z,18.25
2018-06-12T10:30:37.970Z,18.22
2018-06-12T10:31:38.049Z,18.25
2018-06-12T10:32:37.925Z,18.23
2018-06-12T10:33:37.874Z,18.22
2018-06-12T10:34:38.022Z,18.23
2018-06-12T10:35:37.998Z,18.27
2018-06-12T10:36:37.967Z,18.26
2018-06-12T10:37:37.950Z,18.26
2018-06-12T10:38:37.955Z,18.26
2018-06-12T10:39:37.924Z,18.29
2018-06-12T10:40:37.964Z,18.22
2018-06-12T10:41:37.943Z,18.2
2018-06-12T10:42:37.943Z,18.25
2018-06-12T10:43:38.071Z,18.26
2018-06-12T10:44:37.878Z,18.29
2018-06-12T10:45:37.884Z,18.3
2018-06-12T10:46:37.879Z,18.33
2018-06-12T10:47:37.857Z,18.35
2018-06-12T10:48:37.837Z,18.36
2018-06-12T10:49:37.880Z,18.35
2018-06-12T10:50:37.856Z,18.35
2018-06-12T10:51:37.854Z,18.32
2018-06-12T10:52:37.942Z,18.39
2018-06-12T10:53:37.857Z,18.4
2018-06-12T10:54:37.856Z,18.37
2018-06-12T10:55:37.961Z,18.32
2018-06-12T10:56:37.861Z,18.36
2018-06-12T10:57:37.906Z,18.44
2018-06-12T10:58:37.859Z,18.33
2018-06-12T10:59:37.850Z,18.39
2018-06-12T11:00:37.863Z,18.42
2018-06-12T11:01:37.935Z,18.43
2018-06-12T11:02:37.872Z,18.49
2018-06-12T11:03:38.103Z,18.52
2018-06-12T11:04:37.972Z,18.56
2018-06-12T11:05:37.949Z,18.54
2018-06-12T11:06:37.897Z,18.61
2018-06-12T11:07:37.959Z,18.59
2018-06-12T11:08:38.032Z,18.61
2018-06-12T11:09:37.888Z,18.57
2018-06-12T11:10:37.915Z,18.59
2018-06-12T11:11:37.999Z,18.6
2018-06-12T11:12:37.900Z,18.61
2018-06-12T11:13:37.870Z,18.56
2018-06-12T11:14:38.015Z,18.59
2018-06-12T11:15:37.875Z,18.59
2018-06-12T11:16:37.996Z,18.6
2018-06-12T11:17:38.001Z,18.61
2018-06-12T11:18:37.887Z,18.66
2018-06-12T11:19:37.878Z,18.7
2018-06-12T11:20:38.059Z,18.74
2018-06-12T11:21:37.993Z,18.78
2018-06-12T11:22:37.975Z,18.8
2018-06-12T11:23:37.912Z,18.88
2018-06-12T11:24:37.892Z,18.94
2018-06-12T11:25:37.940Z,18.98
2018-06-12T11:26:37.971Z,19.06
2018-06-12T11:27:37.893Z,19.03
2018-06-12T11:28:37.958Z,19.1
2018-06-12T11:29:37.994Z,19.1
2018-06-12T11:30:37.915Z,19.12
2018-06-12T11:31:37.931Z,19.13
2018-06-12T11:32:37.884Z,19.16
2018-06-12T11:33:37.884Z,19.19
2018-06-12T11:34:37.980Z,19.16
2018-06-12T11:35:37.895Z,19.15
2018-06-12T11:36:37.897Z,19.21
2018-06-12T11:37:37.973Z,19.17
2018-06-12T11:38:37.996Z,19.22
2018-06-12T11:39:37.963Z,19.27
2018-06-12T11:40:37.994Z,19.23
2018-06-12T11:41:37.992Z,19.17
2018-06-12T11:42:37.966Z,19.23
2018-06-12T11:43:37.914Z,19.21
2018-06-12T11:44:37.947Z,19.22
2018-06-12T11:45:37.914Z,19.22
2018-06-12T11:46:37.914Z,19.16
2018-06-12T11:47:38.018Z,19.08
2018-06-12T11:48:37.942Z,19.22
2018-06-12T11:49:37.941Z,19.34
2018-06-12T11:50:37.969Z,19.34
2018-06-12T11:51:37.992Z,19.36
2018-06-12T11:52:38.082Z,19.3
2018-06-12T11:53:50.319Z,19.3
2018-06-12T11:54:37.904Z,19.26
2018-06-12T11:55:37.944Z,19.27
2018-06-12T11:56:37.949Z,19.32
2018-06-12T11:57:37.945Z,19.26
2018-06-12T11:58:37.886Z,19.27
2018-06-12T11:59:37.922Z,19.34
2018-06-12T12:00:37.913Z,19.29
2018-06-12T12:01:37.904Z,19.34
2018-06-12T12:02:37.889Z,19.37
2018-06-12T12:03:37.956Z,19.42
2018-06-12T12:04:37.922Z,19.46
2018-06-12T12:05:37.895Z,19.43
2018-06-12T12:06:37.955Z,19.46
2018-06-12T12:07:37.973Z,19.37
2018-06-12T12:08:37.920Z,19.39
2018-06-12T12:09:37.928Z,19.44
2018-06-12T12:10:37.938Z,19.46
2018-06-12T12:11:37.947Z,19.47
2018-06-12T12:12:37.909Z,19.47
2018-06-12T12:13:37.965Z,19.44
2018-06-12T12:14:37.981Z,19.44
2018-06-12T12:15:37.953Z,19.44
2018-06-12T12:16:37.995Z,19.44
2018-06-12T12:17:37.971Z,19.42
2018-06-12T12:18:37.938Z,19.44
2018-06-12T12:19:37.977Z,19.4
2018-06-12T12:20:37.920Z,19.46
2018-06-12T12:21:37.967Z,19.47
2018-06-12T12:22:37.962Z,19.46
2018-06-12T12:23:37.941Z,19.46
2018-06-12T12:24:37.976Z,19.46
2018-06-12T12:25:38.143Z,19.53
2018-06-12T12:26:38.024Z,19.57
2018-06-12T12:27:37.971Z,19.61
2018-06-12T12:28:38.116Z,19.58
2018-06-12T12:29:38.030Z,19.61
2018-06-12T12:30:38.102Z,19.61
2018-06-12T12:31:38.059Z,19.51
2018-06-12T12:32:37.983Z,19.47
2018-06-12T12:33:37.935Z,19.47
2018-06-12T12:34:38.097Z,19.46
2018-06-12T12:35:37.969Z,19.47
2018-06-12T12:36:37.980Z,19.43
2018-06-12T12:37:37.999Z,19.44
2018-06-12T12:38:37.990Z,19.56
2018-06-12T12:39:37.958Z,19.58
2018-06-12T12:40:37.967Z,19.64
2018-06-12T12:41:38.004Z,19.71
2018-06-12T12:42:37.908Z,19.74
2018-06-12T12:43:38.082Z,19.89
2018-06-12T12:44:37.934Z,19.98
2018-06-12T12:45:37.952Z,20.05
2018-06-12T12:46:38.285Z,20.11
2018-06-12T12:47:38.014Z,20.13
2018-06-12T12:48:37.996Z,20.05
2018-06-12T12:49:37.973Z,20.02
2018-06-12T12:50:37.939Z,20.2
2018-06-12T12:51:37.989Z,20.15
2018-06-12T12:52:37.965Z,20.15
2018-06-12T12:53:37.970Z,20.17
2018-06-12T12:54:37.949Z,20.16
2018-06-12T12:55:38.036Z,20.22